createdAt,value
2023-01-28T06:16:36.443Z,99.90
2023-01-28T06:19:22.660Z,99.90
2023-01-28T06:21:50.957Z,99.90
2023-01-28T06:24:19.817Z,99.90
2023-01-28T06:26:47.623Z,99.90
2023-01-28T06:29:15.793Z,99.90
2023-01-28T06:31:43.786Z,99.90
2023-01-28T06:34:11.359Z,99.90
2023-01-28T06:36:42.149Z,99.90
2023-01-28T06:39:09.683Z,99.90
2023-01-28T06:41:37.320Z,99.90
2023-01-28T06:44:05.051Z,99.90
2023-01-28T06:46:32.672Z,99.90
2023-01-28T06:49:00.381Z,99.90
2023-01-28T06:51:31.505Z,99.90
2023-01-28T06:54:00.302Z,99.90
2023-01-28T06:56:27.800Z,99.90
2023-01-28T06:59:02.862Z,99.90
2023-01-28T07:01:30.447Z,99.90
2023-01-28T07:03:58.258Z,99.90
2023-01-28T07:06:25.677Z,99.90
2023-01-28T07:08:52.858Z,99.90
2023-01-28T07:11:20.176Z,99.90
2023-01-28T07:13:47.866Z,99.90
2023-01-28T07:16:15.385Z,99.90
2023-01-28T07:18:42.630Z,99.90
2023-01-28T07:21:10.137Z,99.90
2023-01-28T07:23:37.431Z,99.90
2023-01-28T07:26:05.912Z,99.90
2023-01-28T07:28:34.512Z,99.90
2023-01-28T07:31:02.225Z,99.90
2023-01-28T07:33:30.033Z,99.90
2023-01-28T07:35:58.420Z,99.90
2023-01-28T07:38:25.978Z,99.90
2023-01-28T07:40:53.320Z,99.90
2023-01-28T07:43:20.882Z,99.90
2023-01-28T07:45:50.437Z,99.90
2023-01-28T07:48:18.750Z,99.90
2023-01-28T07:50:48.703Z,99.90
2023-01-28T07:53:16.803Z,99.90
2023-01-28T07:55:44.126Z,99.90
2023-01-28T07:58:47.058Z,99.90
2023-01-28T08:01:14.619Z,99.90
2023-01-28T08:03:52.247Z,99.90
2023-01-28T08:06:19.783Z,99.90
2023-01-28T08:08:48.936Z,99.90
2023-01-28T08:11:20.002Z,99.90
2023-01-28T08:13:48.850Z,99.90
2023-01-28T08:16:16.650Z,99.90
2023-01-28T08:18:44.246Z,99.90
2023-01-28T08:21:14.556Z,99.90
2023-01-28T08:23:41.911Z,99.90
2023-01-28T08:26:09.781Z,99.90
2023-01-28T08:28:37.145Z,99.90
2023-01-28T08:31:05.742Z,99.90
2023-01-28T08:33:33.488Z,99.90
2023-01-28T08:36:04.405Z,99.90
2023-01-28T08:38:31.779Z,99.90
2023-01-28T08:41:01.123Z,99.90
2023-01-28T08:43:28.993Z,99.90
2023-01-28T08:45:56.592Z,99.90
2023-01-28T08:48:24.049Z,99.90
2023-01-28T08:50:53.912Z,99.90
2023-01-28T08:53:48.234Z,99.90
2023-01-28T08:56:16.660Z,99.90
2023-01-28T08:58:45.093Z,99.90
2023-01-28T09:01:12.240Z,99.90
2023-01-28T09:03:39.388Z,99.90
2023-01-28T09:06:06.923Z,99.90
2023-01-28T09:08:34.091Z,99.90
2023-01-28T09:11:01.186Z,99.90
2023-01-28T09:13:28.799Z,99.90
2023-01-28T09:15:56.574Z,99.90
2023-01-28T09:18:23.826Z,99.90
2023-01-28T09:20:50.888Z,99.90
2023-01-28T09:23:18.831Z,99.90
2023-01-28T09:25:46.626Z,99.90
2023-01-28T09:28:14.145Z,99.90
2023-01-28T09:30:45.009Z,99.90
2023-01-28T09:33:32.412Z,99.90
2023-01-28T09:36:06.461Z,99.90
2023-01-28T09:38:44.851Z,99.90
2023-01-28T09:41:32.051Z,99.90
2023-01-28T09:44:11.569Z,99.90
2023-01-28T09:46:49.506Z,99.90
2023-01-28T09:49:50.329Z,99.90
2023-01-28T09:55:34.179Z,99.90
2023-01-28T09:58:01.962Z,99.90
2023-01-28T10:01:06.465Z,99.90
2023-01-28T10:04:10.010Z,99.90
2023-01-28T10:06:43.340Z,99.90
2023-01-28T10:09:23.186Z,99.90
2023-01-28T10:12:22.817Z,99.90
2023-01-28T10:15:14.424Z,99.90
2023-01-28T10:17:45.831Z,99.90
2023-01-28T10:20:13.603Z,99.90
2023-01-28T10:22:49.197Z,99.90
2023-01-28T10:25:21.376Z,99.90
2023-01-28T10:27:51.655Z,99.90
2023-01-28T10:30:24.123Z,99.90
2023-01-28T10:33:16.248Z,99.90
2023-01-28T10:35:43.869Z,99.90
2023-01-28T10:38:16.286Z,99.90
2023-01-28T10:40:44.644Z,99.90
2023-01-28T10:43:12.237Z,99.90
2023-01-28T10:45:48.709Z,99.90
2023-01-28T10:48:29.345Z,99.90
2023-01-28T10:51:05.209Z,99.90
2023-01-28T10:53:46.876Z,99.90
2023-01-28T10:56:27.532Z,99.90
2023-01-28T10:59:03.975Z,99.90
2023-01-28T11:01:57.145Z,99.90
2023-01-28T11:04:55.374Z,99.90
2023-01-28T11:07:23.253Z,99.90
2023-01-28T11:09:56.422Z,99.90
2023-01-28T11:12:28.944Z,99.90
2023-01-28T11:15:05.011Z,99.90
2023-01-28T11:17:38.098Z,99.90
2023-01-28T11:20:19.623Z,99.90
2023-01-28T11:22:48.596Z,99.90
2023-01-28T11:25:39.166Z,99.90
2023-01-28T11:28:18.256Z,99.90
2023-01-28T11:30:55.078Z,99.90
2023-01-28T11:33:31.706Z,99.90
2023-01-28T11:36:15.816Z,99.90
2023-01-28T11:39:02.141Z,99.90
2023-01-28T11:41:33.198Z,99.90
2023-01-28T11:44:13.576Z,99.90
2023-01-28T11:46:49.868Z,99.90
2023-01-28T11:49:23.364Z,99.90
2023-01-28T11:52:12.553Z,99.90
2023-01-28T11:55:13.791Z,99.90
2023-01-28T11:57:51.270Z,99.90
2023-01-28T12:01:10.551Z,99.90
2023-01-28T12:03:59.404Z,99.90
2023-01-28T12:06:50.716Z,99.90
2023-01-28T12:09:55.354Z,99.90
2023-01-28T12:12:49.788Z,99.90
2023-01-28T12:15:30.164Z,99.90
2023-01-28T12:18:10.629Z,99.90
2023-01-28T12:20:40.814Z,99.90
2023-01-28T12:23:11.061Z,99.90
2023-01-28T12:25:46.340Z,99.90
2023-01-28T12:28:34.991Z,99.90
2023-01-28T12:31:08.330Z,99.90
2023-01-28T12:34:10.877Z,99.90
2023-01-28T12:37:03.865Z,99.90
2023-01-28T12:39:49.536Z,99.90
2023-01-28T12:42:26.757Z,99.90
2023-01-28T12:45:14.811Z,99.90
2023-01-28T12:47:47.233Z,99.90
2023-01-28T12:50:42.546Z,99.90
2023-01-28T12:53:21.904Z,99.90
2023-01-28T12:56:24.030Z,99.90
2023-01-28T12:58:57.748Z,99.90
2023-01-28T13:01:35.647Z,99.90
2023-01-28T13:04:39.783Z,99.40
2023-01-28T13:07:23.614Z,99.70
2023-01-28T13:10:12.515Z,99.50
2023-01-28T13:12:41.687Z,99.20
2023-01-28T13:15:16.903Z,99.00
2023-01-28T13:18:05.503Z,99.00
2023-01-28T13:20:39.203Z,98.40
2023-01-28T13:23:23.723Z,98.40
2023-01-28T13:25:54.126Z,98.30
2023-01-28T13:28:33.388Z,98.40
2023-01-28T13:31:06.315Z,97.80
2023-01-28T13:33:35.280Z,98.30
2023-01-28T13:36:26.301Z,98.30
2023-01-28T13:39:21.692Z,98.10
2023-01-28T13:41:52.914Z,98.40
2023-01-28T13:44:29.081Z,98.30
2023-01-28T13:47:08.855Z,98.20
2023-01-28T13:49:51.455Z,97.30
2023-01-28T13:52:33.239Z,97.60
2023-01-28T13:55:04.406Z,97.30
2023-01-28T13:57:46.872Z,97.00
2023-01-28T14:00:35.739Z,96.30
2023-01-28T14:03:22.654Z,96.50
2023-01-28T14:05:50.125Z,96.30
2023-01-28T14:08:39.419Z,96.10
2023-01-28T14:11:32.092Z,96.00
2023-01-28T14:14:20.952Z,95.90
2023-01-28T14:17:28.035Z,95.70
2023-01-28T14:19:57.671Z,95.70
2023-01-28T14:22:27.331Z,95.80
2023-01-28T14:25:00.946Z,95.00
2023-01-28T14:27:37.028Z,95.20
2023-01-28T14:30:19.082Z,95.20
2023-01-28T14:32:50.684Z,95.10
2023-01-28T14:35:33.014Z,95.10
2023-01-28T14:38:07.088Z,95.40
2023-01-28T14:40:38.616Z,95.30
2023-01-28T14:43:09.353Z,95.50
2023-01-28T14:45:56.672Z,95.80
2023-01-28T14:48:46.771Z,95.70
2023-01-28T14:51:58.889Z,95.70
2023-01-28T14:54:53.244Z,95.30
2023-01-28T14:57:42.529Z,95.50
2023-01-28T15:00:21.866Z,95.60
2023-01-28T15:02:49.624Z,95.70
2023-01-28T15:05:25.848Z,95.90
2023-01-28T15:07:54.262Z,95.80
2023-01-28T15:10:34.008Z,96.20
2023-01-28T15:13:14.039Z,96.30
2023-01-28T15:15:46.624Z,96.70
2023-01-28T15:18:19.061Z,97.00
2023-01-28T15:20:49.405Z,97.10
2023-01-28T15:23:20.127Z,97.20
2023-01-28T15:25:48.115Z,97.20
2023-01-28T15:28:31.609Z,97.20
2023-01-28T15:31:02.583Z,97.00
2023-01-28T15:33:30.192Z,97.20
2023-01-28T15:35:59.194Z,97.30
2023-01-28T15:38:29.206Z,97.30
2023-01-28T15:41:03.030Z,97.70
2023-01-28T15:43:38.609Z,97.80
2023-01-28T15:46:13.891Z,97.90
2023-01-28T15:49:04.946Z,97.90
2023-01-28T15:51:36.467Z,97.90
2023-01-28T15:58:01.869Z,97.80
2023-01-28T16:07:29.451Z,98.40
2023-01-28T16:14:06.778Z,98.50
2023-01-28T16:16:40.967Z,98.60
2023-01-28T16:19:44.774Z,99.00
2023-01-28T16:22:35.941Z,99.40
2023-01-28T16:25:31.467Z,99.90
2023-01-28T16:31:16.309Z,99.90
2023-01-28T16:37:04.995Z,99.90
2023-01-28T16:39:39.923Z,99.90
2023-01-28T16:42:36.644Z,99.90
2023-01-28T16:45:18.307Z,99.90
2023-01-28T16:48:03.101Z,99.90
2023-01-28T16:51:06.286Z,99.90
2023-01-28T16:54:08.551Z,99.90
2023-01-28T17:01:15.381Z,99.90
2023-01-28T17:03:51.834Z,99.90
2023-01-28T17:07:21.138Z,99.90
2023-01-28T17:09:58.260Z,99.90
2023-01-28T17:13:03.629Z,99.90
2023-01-28T17:16:16.001Z,99.90
2023-01-28T17:18:59.545Z,99.90
2023-01-28T17:21:41.121Z,99.90
2023-01-28T17:24:17.148Z,99.90
2023-01-28T17:27:14.708Z,99.90
2023-01-28T17:32:57.550Z,99.90
2023-01-28T17:35:54.364Z,99.90
2023-01-28T17:38:55.238Z,99.90
2023-01-28T17:42:06.901Z,99.90
2023-01-28T17:45:05.496Z,99.90
2023-01-28T17:47:51.150Z,99.90
2023-01-28T17:50:25.694Z,99.90
2023-01-28T17:53:35.099Z,99.90
2023-01-28T17:56:22.115Z,99.90
2023-01-28T17:59:30.671Z,99.90
2023-01-28T18:02:02.561Z,99.90
2023-01-28T18:04:36.983Z,99.90
2023-01-28T18:07:11.533Z,99.90
2023-01-28T18:09:44.973Z,99.90
2023-01-28T18:12:39.626Z,99.90
2023-01-28T18:15:16.497Z,99.90
2023-01-28T18:18:09.135Z,99.90
2023-01-28T18:20:43.630Z,99.90
2023-01-28T18:23:21.196Z,99.90
2023-01-28T18:26:42.827Z,99.90
2023-01-28T18:33:29.920Z,99.90
2023-01-28T18:36:10.039Z,99.90
2023-01-28T18:39:32.085Z,99.90
2023-01-28T18:42:47.983Z,99.90
2023-01-28T18:48:41.358Z,99.90
2023-01-28T18:51:29.473Z,99.90
2023-01-28T18:57:58.112Z,99.90
2023-01-28T19:04:28.866Z,99.90
2023-01-28T19:13:41.619Z,99.90
2023-01-28T19:20:29.399Z,99.90
2023-01-28T19:23:20.709Z,99.90
2023-01-28T19:26:01.563Z,99.90
2023-01-28T19:31:34.251Z,99.90
2023-01-28T19:38:09.250Z,99.90
2023-01-28T19:40:41.951Z,99.90
2023-01-28T19:43:21.773Z,99.90
2023-01-28T19:46:06.861Z,99.90
2023-01-28T19:48:37.101Z,99.90
2023-01-28T19:51:15.542Z,99.90
2023-01-28T19:53:56.313Z,99.90
2023-01-28T19:56:52.214Z,99.90
2023-01-28T20:02:58.158Z,99.90
2023-01-28T20:06:05.621Z,99.90
2023-01-28T20:08:42.279Z,99.90
2023-01-28T20:11:24.613Z,99.90
2023-01-28T20:14:03.701Z,99.90
2023-01-28T20:17:02.029Z,99.90
2023-01-28T20:20:07.182Z,99.90
2023-01-28T20:22:59.910Z,99.90
2023-01-28T20:31:36.150Z,99.90
2023-01-28T20:37:22.981Z,99.90
2023-01-28T20:40:05.081Z,99.90
2023-01-28T20:49:38.864Z,99.90
2023-01-28T20:55:45.266Z,99.90
2023-01-28T20:58:48.648Z,99.90
2023-01-28T21:04:38.399Z,99.90
2023-01-28T21:11:07.832Z,99.90
2023-01-28T21:14:57.270Z,99.90
2023-01-28T21:23:51.832Z,99.90
2023-01-28T21:26:25.421Z,99.90
2023-01-28T21:29:28.827Z,99.90
2023-01-28T21:32:16.530Z,99.90
2023-01-28T21:34:48.365Z,99.90
2023-01-28T21:37:35.145Z,99.90
2023-01-28T21:40:16.197Z,99.90
2023-01-28T21:50:06.246Z,99.90
2023-01-28T21:52:43.180Z,99.90
2023-01-28T21:55:37.503Z,99.90
2023-01-28T21:58:59.265Z,99.90
2023-01-28T22:02:06.730Z,99.90
2023-01-28T22:05:07.584Z,99.90
2023-01-28T22:12:20.251Z,99.90
2023-01-28T22:15:20.332Z,99.90
2023-01-28T22:18:30.103Z,99.90
2023-01-28T22:21:43.448Z,99.90
2023-01-28T22:25:27.049Z,99.90
2023-01-28T22:27:54.196Z,99.90
2023-01-28T22:30:21.338Z,99.90
2023-01-28T22:32:49.793Z,99.90
2023-01-28T22:35:16.954Z,99.90
2023-01-28T22:37:44.423Z,99.90
2023-01-28T22:40:12.046Z,99.90
2023-01-28T22:42:39.153Z,99.90
2023-01-28T22:45:07.230Z,99.90
2023-01-28T22:47:34.367Z,99.90
2023-01-28T22:50:01.447Z,99.90
2023-01-28T22:52:28.471Z,99.90
2023-01-28T22:54:55.552Z,99.90
2023-01-28T22:57:22.603Z,99.90
2023-01-28T22:59:59.483Z,99.90
2023-01-28T23:02:27.162Z,99.90
2023-01-28T23:04:54.246Z,99.90
2023-01-28T23:07:21.230Z,99.90
2023-01-28T23:09:48.324Z,99.90
2023-01-28T23:12:15.443Z,99.90
2023-01-28T23:15:00.885Z,99.90
2023-01-28T23:17:46.473Z,99.90
2023-01-28T23:20:31.959Z,99.90
2023-01-28T23:23:17.508Z,99.90
2023-01-28T23:25:44.621Z,99.90
2023-01-28T23:28:11.755Z,99.90
2023-01-28T23:30:39.792Z,99.90
2023-01-28T23:33:07.144Z,99.90
2023-01-28T23:35:34.212Z,99.90
2023-01-28T23:38:01.276Z,99.90
2023-01-28T23:40:28.587Z,99.90
2023-01-28T23:42:56.338Z,99.90
2023-01-28T23:45:23.343Z,99.90
2023-01-28T23:47:50.545Z,99.90
2023-01-28T23:50:17.993Z,99.90
2023-01-28T23:52:45.267Z,99.90
2023-01-28T23:55:12.626Z,99.90
2023-01-28T23:57:39.731Z,99.90
